createdAt,value
2022-10-30T00:00:30.024Z,12.56
2022-10-30T00:02:57.397Z,12.54
2022-10-30T00:05:25.125Z,12.57
2022-10-30T00:07:51.961Z,12.57
2022-10-30T00:10:18.810Z,12.55
2022-10-30T00:12:45.718Z,12.54
2022-10-30T00:15:12.689Z,12.51
2022-10-30T00:17:39.520Z,12.58
2022-10-30T00:20:07.482Z,12.60
2022-10-30T00:22:36.192Z,12.59
2022-10-30T00:25:04.126Z,12.61
2022-10-30T00:27:31.673Z,12.64
2022-10-30T00:29:58.332Z,12.72
2022-10-30T00:32:25.014Z,12.80
2022-10-30T00:34:51.963Z,12.85
2022-10-30T00:37:18.595Z,12.86
2022-10-30T00:39:45.231Z,12.83
2022-10-30T00:42:16.430Z,12.84
2022-10-30T00:44:49.727Z,12.81
2022-10-30T00:47:28.458Z,12.75
2022-10-30T00:49:57.863Z,12.69
2022-10-30T00:52:29.910Z,12.64
2022-10-30T00:54:58.527Z,12.62
2022-10-30T00:57:26.720Z,12.61
2022-10-30T00:59:53.814Z,12.61
2022-10-30T01:02:22.509Z,12.62
2022-10-30T01:04:51.434Z,12.64
2022-10-30T01:07:18.402Z,12.66
2022-10-30T01:09:47.324Z,12.62
2022-10-30T01:12:15.190Z,12.58
2022-10-30T01:14:47.646Z,12.53
2022-10-30T01:17:43.537Z,12.50
2022-10-30T01:20:19.440Z,12.46
2022-10-30T01:23:23.909Z,12.46
2022-10-30T01:26:12.076Z,12.45
2022-10-30T01:28:47.677Z,12.43
2022-10-30T01:31:32.709Z,12.40
2022-10-30T01:34:21.471Z,12.39
2022-10-30T01:37:10.182Z,12.42
2022-10-30T01:39:40.343Z,12.44
2022-10-30T01:42:11.923Z,12.44
2022-10-30T01:44:39.125Z,12.40
2022-10-30T01:47:51.334Z,12.40
2022-10-30T01:50:33.127Z,12.44
2022-10-30T01:53:05.617Z,12.47
2022-10-30T01:56:07.827Z,12.55
2022-10-30T01:58:48.359Z,12.59
2022-10-30T02:01:15.701Z,12.62
2022-10-30T02:03:43.148Z,12.62
2022-10-30T02:06:10.180Z,12.60
2022-10-30T02:08:36.984Z,12.59
2022-10-30T02:11:04.990Z,12.59
2022-10-30T02:13:32.949Z,12.63
2022-10-30T02:15:59.931Z,12.74
2022-10-30T02:18:26.719Z,12.84
2022-10-30T02:20:54.222Z,12.86
2022-10-30T02:23:22.456Z,12.85
2022-10-30T02:25:49.136Z,12.84
2022-10-30T02:28:15.959Z,12.84
2022-10-30T02:30:44.272Z,12.83
2022-10-30T02:33:11.347Z,12.84
2022-10-30T02:35:38.187Z,12.85
2022-10-30T02:38:04.851Z,12.91
2022-10-30T02:40:31.808Z,12.94
2022-10-30T02:42:58.834Z,13.01
2022-10-30T02:45:25.519Z,13.04
2022-10-30T02:47:52.214Z,13.07
2022-10-30T02:50:19.067Z,13.09
2022-10-30T02:52:45.690Z,13.12
2022-10-30T02:55:12.456Z,13.14
2022-10-30T02:57:39.225Z,13.12
2022-10-30T03:00:06.621Z,13.10
2022-10-30T03:02:33.864Z,13.13
2022-10-30T03:05:00.707Z,13.14
2022-10-30T03:07:27.816Z,13.16
2022-10-30T03:09:55.047Z,13.16
2022-10-30T03:12:22.484Z,13.12
2022-10-30T03:14:49.124Z,13.08
2022-10-30T03:17:15.945Z,13.07
2022-10-30T03:19:42.853Z,13.08
2022-10-30T03:22:09.622Z,13.11
2022-10-30T03:24:36.448Z,13.18
2022-10-30T03:27:03.275Z,13.17
2022-10-30T03:29:30.096Z,13.20
2022-10-30T03:31:56.856Z,13.21
2022-10-30T03:34:23.645Z,13.23
2022-10-30T03:36:50.336Z,13.26
2022-10-30T03:39:17.142Z,13.28
2022-10-30T03:41:44.205Z,13.27
2022-10-30T03:44:10.877Z,13.25
2022-10-30T03:46:38.335Z,13.22
2022-10-30T03:49:05.048Z,13.19
2022-10-30T03:51:31.790Z,13.19
2022-10-30T03:53:59.151Z,13.22
2022-10-30T03:56:25.952Z,13.25
2022-10-30T03:58:52.780Z,13.27
2022-10-30T04:01:19.765Z,13.31
2022-10-30T04:03:46.509Z,13.33
2022-10-30T04:06:13.392Z,13.34
2022-10-30T04:08:40.219Z,13.36
2022-10-30T04:11:07.009Z,13.37
2022-10-30T04:13:33.822Z,13.38
2022-10-30T04:16:00.570Z,13.38
2022-10-30T04:18:27.480Z,13.38
2022-10-30T04:20:54.358Z,13.39
2022-10-30T04:23:22.355Z,13.41
2022-10-30T04:25:49.365Z,13.43
2022-10-30T04:28:16.452Z,13.44
2022-10-30T04:30:43.245Z,13.44
2022-10-30T04:33:13.817Z,13.47
2022-10-30T04:35:41.413Z,13.45
2022-10-30T04:38:13.918Z,13.45
2022-10-30T04:40:43.235Z,13.43
2022-10-30T04:43:11.116Z,13.43
2022-10-30T04:45:38.452Z,13.43
2022-10-30T04:48:05.206Z,13.43
2022-10-30T04:50:33.011Z,13.42
2022-10-30T04:53:14.508Z,13.41
2022-10-30T04:55:41.694Z,13.41
2022-10-30T04:58:09.458Z,13.41
2022-10-30T05:00:37.164Z,13.41
2022-10-30T05:03:04.246Z,13.39
2022-10-30T05:05:31.707Z,13.37
2022-10-30T05:07:59.065Z,13.33
2022-10-30T05:10:26.023Z,13.28
2022-10-30T05:12:54.433Z,13.22
2022-10-30T05:15:21.632Z,13.12
2022-10-30T05:17:52.944Z,13.04
2022-10-30T05:20:20.035Z,12.96
2022-10-30T05:22:47.160Z,12.89
2022-10-30T05:25:13.997Z,12.86
2022-10-30T05:27:40.630Z,12.82
2022-10-30T05:30:08.023Z,12.81
2022-10-30T05:32:34.820Z,12.83
2022-10-30T05:35:01.503Z,12.85
2022-10-30T05:37:28.610Z,12.84
2022-10-30T05:39:55.333Z,12.86
2022-10-30T05:42:21.985Z,12.85
2022-10-30T05:45:00.908Z,12.82
2022-10-30T05:47:28.633Z,12.79
2022-10-30T05:49:55.393Z,12.73
2022-10-30T05:52:22.030Z,12.68
2022-10-30T05:54:48.778Z,12.64
2022-10-30T05:57:15.632Z,12.65
2022-10-30T05:59:42.278Z,12.65
2022-10-30T06:02:08.985Z,12.65
2022-10-30T06:04:35.793Z,12.65
2022-10-30T06:07:02.438Z,12.65
2022-10-30T06:09:29.147Z,12.65
2022-10-30T06:11:56.091Z,12.66
2022-10-30T06:14:22.747Z,12.64
2022-10-30T06:16:49.443Z,12.65
2022-10-30T06:19:18.663Z,12.64
2022-10-30T06:21:46.508Z,12.62
2022-10-30T06:24:13.774Z,12.61
2022-10-30T06:26:40.963Z,12.58
2022-10-30T06:29:07.810Z,12.53
2022-10-30T06:31:34.481Z,12.45
2022-10-30T06:34:01.874Z,12.37
2022-10-30T06:36:28.546Z,12.28
2022-10-30T06:38:55.380Z,12.20
2022-10-30T06:41:26.097Z,12.16
2022-10-30T06:43:56.865Z,12.08
2022-10-30T06:46:26.968Z,12.02
2022-10-30T06:48:57.475Z,11.96
2022-10-30T06:51:25.353Z,11.91
2022-10-30T06:53:52.201Z,11.86
2022-10-30T06:56:18.826Z,11.81
2022-10-30T06:58:45.665Z,11.75
2022-10-30T07:01:12.391Z,11.71
2022-10-30T07:03:39.110Z,11.66
2022-10-30T07:06:06.261Z,11.60
2022-10-30T07:08:33.036Z,11.57
2022-10-30T07:10:59.684Z,11.54
2022-10-30T07:13:26.840Z,11.51
2022-10-30T07:15:53.802Z,11.49
2022-10-30T07:18:20.538Z,11.52
2022-10-30T07:20:47.321Z,11.56
2022-10-30T07:23:14.106Z,11.61
2022-10-30T07:25:40.742Z,11.67
2022-10-30T07:28:07.429Z,11.67
2022-10-30T07:30:34.171Z,11.67
2022-10-30T07:33:05.681Z,11.67
2022-10-30T07:35:35.487Z,11.71
2022-10-30T07:38:06.912Z,11.78
2022-10-30T07:40:34.411Z,11.82
2022-10-30T07:43:03.043Z,11.87
2022-10-30T07:45:30.479Z,11.89
2022-10-30T07:47:57.663Z,11.93
2022-10-30T07:50:25.300Z,11.94
2022-10-30T07:52:51.966Z,11.94
2022-10-30T07:55:18.646Z,11.93
2022-10-30T07:57:45.516Z,11.95
2022-10-30T08:00:14.431Z,11.98
2022-10-30T08:02:41.973Z,12.05
2022-10-30T08:05:09.943Z,12.13
2022-10-30T08:07:39.249Z,12.17
2022-10-30T08:10:07.601Z,12.20
2022-10-30T08:12:35.522Z,12.21
2022-10-30T08:15:02.530Z,12.21
2022-10-30T08:17:29.189Z,12.20
2022-10-30T08:19:57.331Z,12.20
2022-10-30T08:22:24.242Z,12.20
2022-10-30T08:24:51.259Z,12.19
2022-10-30T08:27:18.277Z,12.20
2022-10-30T08:30:34.158Z,12.18
2022-10-30T08:34:00.729Z,12.12
2022-10-30T08:40:11.480Z,11.99
2022-10-30T08:42:38.768Z,11.96
2022-10-30T08:45:06.609Z,11.96
2022-10-30T08:47:33.429Z,11.98
2022-10-30T08:50:00.155Z,11.98
2022-10-30T08:52:27.452Z,11.99
2022-10-30T08:54:54.557Z,12.02
2022-10-30T08:57:21.323Z,12.06
2022-10-30T08:59:47.946Z,12.11
2022-10-30T09:02:14.900Z,12.21
2022-10-30T09:04:41.639Z,12.30
2022-10-30T09:07:11.947Z,12.38
2022-10-30T09:09:39.930Z,12.47
2022-10-30T09:12:06.813Z,12.55
2022-10-30T09:14:33.470Z,12.64
2022-10-30T09:17:00.223Z,12.71
2022-10-30T09:19:28.642Z,12.81
2022-10-30T09:21:55.489Z,13.11
2022-10-30T09:24:22.275Z,13.30
2022-10-30T09:26:49.081Z,13.41
2022-10-30T09:29:15.727Z,13.59
2022-10-30T09:31:42.758Z,13.57
2022-10-30T09:34:09.559Z,13.52
2022-10-30T09:36:36.227Z,13.56
2022-10-30T09:39:02.970Z,13.63
2022-10-30T09:41:32.628Z,13.71
2022-10-30T09:44:23.304Z,13.70
2022-10-30T09:46:49.918Z,13.82
2022-10-30T09:49:32.278Z,13.87
2022-10-30T09:52:05.099Z,13.84
2022-10-30T09:55:02.250Z,13.83
2022-10-30T09:57:50.277Z,13.90
2022-10-30T10:00:28.246Z,13.97
2022-10-30T10:03:31.653Z,14.35
2022-10-30T10:05:59.906Z,14.79
2022-10-30T10:09:05.139Z,15.22
2022-10-30T10:11:44.434Z,15.52
2022-10-30T10:14:20.996Z,15.71
2022-10-30T10:16:52.589Z,15.83
2022-10-30T10:19:29.155Z,15.85
2022-10-30T10:21:58.466Z,15.84
2022-10-30T10:24:35.620Z,15.68
2022-10-30T10:27:16.814Z,15.62
2022-10-30T10:30:08.732Z,15.56
2022-10-30T10:33:02.502Z,15.40
2022-10-30T10:35:57.296Z,15.14
2022-10-30T10:38:45.503Z,14.94
2022-10-30T10:41:12.224Z,14.77
2022-10-30T10:44:13.275Z,14.62
2022-10-30T10:47:01.743Z,14.55
2022-10-30T10:49:53.131Z,14.46
2022-10-30T10:52:40.140Z,14.41
2022-10-30T10:55:17.962Z,14.35
2022-10-30T10:57:46.103Z,14.31
2022-10-30T11:00:20.941Z,14.26
2022-10-30T11:02:52.910Z,14.21
2022-10-30T11:05:37.059Z,14.28
2022-10-30T11:08:25.970Z,14.34
2022-10-30T11:11:10.765Z,14.61
2022-10-30T11:13:40.699Z,14.82
2022-10-30T11:16:48.757Z,14.97
2022-10-30T11:19:15.479Z,15.17
2022-10-30T11:21:46.453Z,15.26
2022-10-30T11:24:30.350Z,15.37
2022-10-30T11:26:59.298Z,15.45
2022-10-30T11:29:29.820Z,15.44
2022-10-30T11:32:04.586Z,15.30
2022-10-30T11:34:36.758Z,15.18
2022-10-30T11:37:04.859Z,15.07
2022-10-30T11:39:35.651Z,14.95
2022-10-30T11:42:13.996Z,14.80
2022-10-30T11:44:48.289Z,14.65
2022-10-30T11:47:17.578Z,14.55
2022-10-30T11:49:47.215Z,14.43
2022-10-30T11:52:21.384Z,14.38
2022-10-30T11:54:57.883Z,14.31
2022-10-30T11:57:38.150Z,14.23
2022-10-30T12:00:08.314Z,14.19
2022-10-30T12:02:46.870Z,14.18
2022-10-30T12:05:25.969Z,14.24
2022-10-30T12:07:53.865Z,14.31
2022-10-30T12:10:30.981Z,14.47
2022-10-30T12:12:57.873Z,14.68
2022-10-30T12:15:27.015Z,14.92
2022-10-30T12:18:01.962Z,15.12
2022-10-30T12:20:29.462Z,15.28
2022-10-30T12:22:56.567Z,15.42
2022-10-30T12:25:30.607Z,15.62
2022-10-30T12:28:19.643Z,15.82
2022-10-30T12:30:59.205Z,15.83
2022-10-30T12:33:52.968Z,15.70
2022-10-30T12:36:30.406Z,15.64
2022-10-30T12:39:09.263Z,15.57
2022-10-30T12:41:54.071Z,15.61
2022-10-30T12:44:48.708Z,15.55
2022-10-30T12:47:39.463Z,15.50
2022-10-30T12:50:21.903Z,15.44
2022-10-30T12:53:38.903Z,15.37
2022-10-30T12:56:17.983Z,15.54
2022-10-30T12:58:56.860Z,15.72
2022-10-30T13:01:31.862Z,15.73
2022-10-30T13:04:07.777Z,15.69
2022-10-30T13:06:42.944Z,15.56
2022-10-30T13:09:18.443Z,15.69
2022-10-30T13:12:06.329Z,15.69
2022-10-30T13:14:45.853Z,15.80
2022-10-30T13:17:13.992Z,15.97
2022-10-30T13:19:47.523Z,16.12
2022-10-30T13:22:26.257Z,16.16
2022-10-30T13:25:24.555Z,16.18
2022-10-30T13:28:04.200Z,16.21
2022-10-30T13:30:37.265Z,16.30
2022-10-30T13:33:43.098Z,16.32
2022-10-30T13:36:27.631Z,16.20
2022-10-30T13:39:22.368Z,16.03
2022-10-30T13:42:00.965Z,15.98
2022-10-30T13:44:45.888Z,15.93
2022-10-30T13:47:25.728Z,15.83
2022-10-30T13:49:55.134Z,15.67
2022-10-30T13:52:23.371Z,15.64
2022-10-30T13:55:13.712Z,15.51
2022-10-30T13:57:49.665Z,15.45
2022-10-30T14:00:23.118Z,15.47
2022-10-30T14:03:16.720Z,15.54
2022-10-30T14:05:51.410Z,15.64
2022-10-30T14:08:18.138Z,15.84
2022-10-30T14:10:48.426Z,16.00
2022-10-30T14:13:27.139Z,16.01
2022-10-30T14:16:37.433Z,16.17
2022-10-30T14:19:06.264Z,16.07
2022-10-30T14:21:55.523Z,16.15
2022-10-30T14:27:05.127Z,15.85
2022-10-30T14:29:34.898Z,15.85
2022-10-30T14:32:01.506Z,16.11
2022-10-30T14:34:50.439Z,16.21
2022-10-30T14:37:37.265Z,15.99
2022-10-30T14:40:35.009Z,15.78
2022-10-30T14:43:35.583Z,15.73
2022-10-30T14:46:12.177Z,15.69
2022-10-30T14:49:06.737Z,15.52
2022-10-30T14:51:45.482Z,15.25
2022-10-30T14:54:46.227Z,15.02
2022-10-30T14:57:23.644Z,14.89
2022-10-30T15:00:22.065Z,14.81
2022-10-30T15:03:07.437Z,14.74
2022-10-30T15:05:50.747Z,14.66
2022-10-30T15:08:39.090Z,14.62
2022-10-30T15:11:36.552Z,14.62
2022-10-30T15:14:20.922Z,14.67
2022-10-30T15:16:51.321Z,14.74
2022-10-30T15:19:20.752Z,14.87
2022-10-30T15:21:52.314Z,14.91
2022-10-30T15:24:22.414Z,14.86
2022-10-30T15:26:52.594Z,14.77
2022-10-30T15:29:23.539Z,14.67
2022-10-30T15:32:03.528Z,14.59
2022-10-30T15:34:32.005Z,14.54
2022-10-30T15:36:59.068Z,14.51
2022-10-30T15:39:26.206Z,14.53
2022-10-30T15:42:01.823Z,14.51
2022-10-30T15:44:35.182Z,14.45
2022-10-30T15:47:03.592Z,14.39
2022-10-30T15:49:36.040Z,14.39
2022-10-30T15:52:12.509Z,14.33
2022-10-30T15:54:44.035Z,14.28
2022-10-30T15:58:03.012Z,14.23
2022-10-30T16:00:23.812Z,14.14
2022-10-30T16:03:02.235Z,14.10
2022-10-30T16:05:30.302Z,14.13
2022-10-30T16:07:59.642Z,14.16
2022-10-30T16:10:28.183Z,14.13
2022-10-30T16:12:57.157Z,14.07
2022-10-30T16:15:24.070Z,14.00
2022-10-30T16:18:03.906Z,13.95
2022-10-30T16:20:30.859Z,13.92
2022-10-30T16:22:58.977Z,13.86
2022-10-30T16:25:25.944Z,13.81
2022-10-30T16:27:52.555Z,13.77
2022-10-30T16:30:19.374Z,13.71
2022-10-30T16:32:52.752Z,13.66
2022-10-30T16:35:22.007Z,13.63
2022-10-30T16:37:49.068Z,13.57
2022-10-30T16:40:20.110Z,13.53
2022-10-30T16:42:55.122Z,13.48
2022-10-30T16:45:24.548Z,13.46
2022-10-30T16:48:08.332Z,13.43
2022-10-30T16:50:38.254Z,13.39
2022-10-30T16:53:17.401Z,13.34
2022-10-30T16:55:44.460Z,13.29
2022-10-30T16:58:13.719Z,13.27
2022-10-30T17:00:42.370Z,13.26
2022-10-30T17:03:11.884Z,13.21
2022-10-30T17:05:40.604Z,13.16
2022-10-30T17:08:30.945Z,13.12
2022-10-30T17:10:59.137Z,13.08
2022-10-30T17:13:56.117Z,13.06
2022-10-30T17:16:31.478Z,13.02
2022-10-30T17:19:22.373Z,12.99
2022-10-30T17:21:52.146Z,12.99
2022-10-30T17:24:22.351Z,12.97
2022-10-30T17:26:57.391Z,12.96
2022-10-30T17:29:36.501Z,12.94
2022-10-30T17:32:27.575Z,12.90
2022-10-30T17:35:14.399Z,12.90
2022-10-30T17:37:41.185Z,12.89
2022-10-30T17:40:08.414Z,12.88
2022-10-30T17:43:34.955Z,12.87
2022-10-30T17:47:01.353Z,12.79
2022-10-30T17:54:01.793Z,12.77
2022-10-30T17:57:28.272Z,12.77
2022-10-30T18:01:06.120Z,12.78
2022-10-30T18:04:32.608Z,12.80
2022-10-30T18:06:59.358Z,12.80
2022-10-30T18:09:26.020Z,12.82
2022-10-30T18:11:52.625Z,12.82
2022-10-30T18:14:19.447Z,12.81
2022-10-30T18:16:48.228Z,12.81
2022-10-30T18:19:18.034Z,12.79
2022-10-30T18:22:44.725Z,12.75
2022-10-30T18:29:56.351Z,12.70
2022-10-30T18:32:22.998Z,12.68
2022-10-30T18:34:49.732Z,12.63
2022-10-30T18:37:16.421Z,12.60
2022-10-30T18:39:43.082Z,12.57
2022-10-30T18:42:09.949Z,12.56
2022-10-30T18:44:36.773Z,12.54
2022-10-30T18:47:09.488Z,12.51
2022-10-30T18:49:36.164Z,12.50
2022-10-30T18:52:02.897Z,12.48
2022-10-30T18:54:29.515Z,12.49
2022-10-30T18:56:56.282Z,12.49
2022-10-30T18:59:23.114Z,12.48
2022-10-30T19:01:50.086Z,12.46
2022-10-30T19:04:21.958Z,12.47
2022-10-30T19:06:49.336Z,12.48
2022-10-30T19:09:16.035Z,12.47
2022-10-30T19:11:44.530Z,12.44
2022-10-30T19:14:15.447Z,12.46
2022-10-30T19:16:42.325Z,12.44
2022-10-30T19:19:09.119Z,12.41
2022-10-30T19:21:35.975Z,12.38
2022-10-30T19:24:02.904Z,12.35
2022-10-30T19:26:29.677Z,12.30
2022-10-30T19:28:56.481Z,12.28
2022-10-30T19:31:23.170Z,12.33
2022-10-30T19:33:53.184Z,12.33
2022-10-30T19:36:36.565Z,12.34
2022-10-30T19:39:09.176Z,12.33
2022-10-30T19:41:36.947Z,12.33
2022-10-30T19:44:04.269Z,12.31
2022-10-30T19:47:30.818Z,12.31
2022-10-30T19:53:40.387Z,12.28
2022-10-30T19:56:09.656Z,12.25
2022-10-30T19:58:36.332Z,12.23
2022-10-30T20:01:03.301Z,12.22
2022-10-30T20:03:29.932Z,12.21
2022-10-30T20:05:56.565Z,12.21
2022-10-30T20:08:26.047Z,12.20
2022-10-30T20:10:58.094Z,12.19
2022-10-30T20:13:26.477Z,12.19
2022-10-30T20:15:54.896Z,12.21
2022-10-30T20:18:30.733Z,12.19
2022-10-30T20:21:03.914Z,12.17
2022-10-30T20:23:31.501Z,12.19
2022-10-30T20:26:02.715Z,12.20
2022-10-30T20:28:37.161Z,12.19
2022-10-30T20:31:04.345Z,12.17
2022-10-30T20:33:31.200Z,12.17
2022-10-30T20:35:58.823Z,12.13
2022-10-30T20:38:29.399Z,12.11
2022-10-30T20:40:57.748Z,12.07
2022-10-30T20:43:37.984Z,12.05
2022-10-30T20:46:07.165Z,12.03
2022-10-30T20:48:33.939Z,12.03
2022-10-30T20:51:02.148Z,12.03
2022-10-30T20:53:29.744Z,12.00
2022-10-30T20:55:56.970Z,11.99
2022-10-30T20:58:24.243Z,11.95
2022-10-30T21:00:53.421Z,11.91
2022-10-30T21:03:20.227Z,11.93
2022-10-30T21:05:47.204Z,11.90
2022-10-30T21:08:14.485Z,11.90
2022-10-30T21:10:42.091Z,11.87
2022-10-30T21:13:10.919Z,11.85
2022-10-30T21:15:42.923Z,11.88
2022-10-30T21:18:11.719Z,11.87
2022-10-30T21:20:38.873Z,11.87
2022-10-30T21:23:06.341Z,11.83
2022-10-30T21:25:33.608Z,11.79
2022-10-30T21:28:01.018Z,11.75
2022-10-30T21:30:28.343Z,11.71
2022-10-30T21:32:55.223Z,11.66
2022-10-30T21:35:21.972Z,11.60
2022-10-30T21:37:48.879Z,11.56
2022-10-30T21:40:15.642Z,11.54
2022-10-30T21:42:42.265Z,11.51
2022-10-30T21:45:09.946Z,11.46
2022-10-30T21:47:36.761Z,11.44
2022-10-30T21:50:07.689Z,11.43
2022-10-30T21:52:36.190Z,11.43
2022-10-30T21:55:03.388Z,11.46
2022-10-30T21:57:30.219Z,11.48
2022-10-30T21:59:58.909Z,11.49
2022-10-30T22:02:28.513Z,11.50
2022-10-30T22:04:55.383Z,11.50
2022-10-30T22:07:22.162Z,11.50
2022-10-30T22:09:48.892Z,11.59
2022-10-30T22:12:15.623Z,11.61
2022-10-30T22:14:42.524Z,11.61
2022-10-30T22:17:09.334Z,11.62
2022-10-30T22:19:36.789Z,11.61
2022-10-30T22:22:03.574Z,11.62
2022-10-30T22:24:30.272Z,11.62
2022-10-30T22:26:57.003Z,11.66
2022-10-30T22:29:23.807Z,11.67
2022-10-30T22:31:50.501Z,11.69
2022-10-30T22:34:17.320Z,11.71
2022-10-30T22:36:44.226Z,11.78
2022-10-30T22:39:13.105Z,11.87
2022-10-30T22:41:40.702Z,11.97
2022-10-30T22:44:11.092Z,12.04
2022-10-30T22:46:38.123Z,12.13
2022-10-30T22:49:05.656Z,12.22
2022-10-30T22:51:34.613Z,12.26
2022-10-30T22:54:04.034Z,12.27
2022-10-30T22:56:35.673Z,12.28
2022-10-30T22:59:05.561Z,12.27
2022-10-30T23:01:34.228Z,12.24
2022-10-30T23:04:02.764Z,12.19
2022-10-30T23:06:31.552Z,12.12
2022-10-30T23:09:00.223Z,12.09
2022-10-30T23:11:28.537Z,12.04
2022-10-30T23:13:55.579Z,12.02
2022-10-30T23:16:24.888Z,11.99
2022-10-30T23:18:54.379Z,11.96
2022-10-30T23:21:23.861Z,11.94
2022-10-30T23:23:50.610Z,11.92
2022-10-30T23:26:26.328Z,11.88
2022-10-30T23:28:54.793Z,11.86
2022-10-30T23:31:30.521Z,11.85
2022-10-30T23:33:59.706Z,11.87
2022-10-30T23:36:27.269Z,11.86
2022-10-30T23:38:59.692Z,11.86
2022-10-30T23:41:28.971Z,11.89
2022-10-30T23:43:57.849Z,11.91
2022-10-30T23:46:25.004Z,11.93
2022-10-30T23:48:51.835Z,11.92
2022-10-30T23:51:19.242Z,11.94
2022-10-30T23:53:46.096Z,11.93
2022-10-30T23:56:13.511Z,11.95
2022-10-30T23:58:43.695Z,11.96
